sensor_id;sensor_type;location;lat;lon;timestamp;P1;durP1;ratioP1;P2;durP2;ratioP2
16665;SDS011;8446;50.998;6.250;2023-08-31T00:00:52;6.40;;;4.63;;
16665;SDS011;8446;50.998;6.250;2023-08-31T00:03:19;5.60;;;3.70;;
16665;SDS011;8446;50.998;6.250;2023-08-31T00:05:46;10.80;;;3.93;;
16665;SDS011;8446;50.998;6.250;2023-08-31T00:08:16;5.10;;;3.07;;
16665;SDS011;8446;50.998;6.250;2023-08-31T00:10:43;6.93;;;3.10;;
16665;SDS011;8446;50.998;6.250;2023-08-31T00:13:11;7.33;;;3.30;;
16665;SDS011;8446;50.998;6.250;2023-08-31T00:15:38;4.97;;;3.10;;
16665;SDS011;8446;50.998;6.250;2023-08-31T00:18:06;5.37;;;3.43;;
16665;SDS011;8446;50.998;6.250;2023-08-31T00:20:33;8.13;;;3.53;;
16665;SDS011;8446;50.998;6.250;2023-08-31T00:23:00;7.07;;;3.20;;
16665;SDS011;8446;50.998;6.250;2023-08-31T00:25:26;5.03;;;3.40;;
16665;SDS011;8446;50.998;6.250;2023-08-31T00:27:53;5.20;;;3.67;;
16665;SDS011;8446;50.998;6.250;2023-08-31T00:30:23;3.97;;;3.10;;
16665;SDS011;8446;50.998;6.250;2023-08-31T00:32:54;5.43;;;3.57;;
16665;SDS011;8446;50.998;6.250;2023-08-31T00:35:25;5.67;;;3.20;;
16665;SDS011;8446;50.998;6.250;2023-08-31T00:37:52;5.77;;;3.67;;
16665;SDS011;8446;50.998;6.250;2023-08-31T00:40:22;6.00;;;3.40;;
16665;SDS011;8446;50.998;6.250;2023-08-31T00:42:48;8.40;;;3.70;;
16665;SDS011;8446;50.998;6.250;2023-08-31T00:45:17;4.80;;;3.30;;
16665;SDS011;8446;50.998;6.250;2023-08-31T00:47:45;7.37;;;4.07;;
16665;SDS011;8446;50.998;6.250;2023-08-31T00:50:14;5.40;;;3.63;;
16665;SDS011;8446;50.998;6.250;2023-08-31T00:52:41;4.00;;;3.47;;
16665;SDS011;8446;50.998;6.250;2023-08-31T00:55:09;4.40;;;3.57;;
16665;SDS011;8446;50.998;6.250;2023-08-31T00:57:37;6.23;;;3.93;;
16665;SDS011;8446;50.998;6.250;2023-08-31T01:00:06;4.43;;;3.70;;
16665;SDS011;8446;50.998;6.250;2023-08-31T01:02:34;4.30;;;3.37;;
16665;SDS011;8446;50.998;6.250;2023-08-31T01:05:17;5.87;;;3.70;;
16665;SDS011;8446;50.998;6.250;2023-08-31T01:07:55;4.67;;;3.73;;
16665;SDS011;8446;50.998;6.250;2023-08-31T01:10:25;6.80;;;3.90;;
16665;SDS011;8446;50.998;6.250;2023-08-31T01:12:59;7.87;;;3.90;;
16665;SDS011;8446;50.998;6.250;2023-08-31T01:15:29;8.33;;;3.73;;
16665;SDS011;8446;50.998;6.250;2023-08-31T01:17:58;6.67;;;3.13;;
16665;SDS011;8446;50.998;6.250;2023-08-31T01:20:38;6.70;;;3.57;;
16665;SDS011;8446;50.998;6.250;2023-08-31T01:23:13;3.27;;;2.97;;
16665;SDS011;8446;50.998;6.250;2023-08-31T01:25:45;7.53;;;3.00;;
16665;SDS011;8446;50.998;6.250;2023-08-31T01:28:14;9.10;;;3.23;;
16665;SDS011;8446;50.998;6.250;2023-08-31T01:30:41;3.40;;;3.10;;
16665;SDS011;8446;50.998;6.250;2023-08-31T01:33:07;4.90;;;3.40;;
16665;SDS011;8446;50.998;6.250;2023-08-31T01:35:36;5.13;;;3.60;;
16665;SDS011;8446;50.998;6.250;2023-08-31T01:38:08;5.20;;;3.33;;
16665;SDS011;8446;50.998;6.250;2023-08-31T01:40:38;5.40;;;3.30;;
16665;SDS011;8446;50.998;6.250;2023-08-31T01:43:10;7.50;;;3.00;;
16665;SDS011;8446;50.998;6.250;2023-08-31T01:45:37;6.17;;;2.90;;
16665;SDS011;8446;50.998;6.250;2023-08-31T01:48:05;6.30;;;3.30;;
16665;SDS011;8446;50.998;6.250;2023-08-31T01:50:32;5.73;;;3.27;;
16665;SDS011;8446;50.998;6.250;2023-08-31T01:52:59;4.10;;;3.13;;
16665;SDS011;8446;50.998;6.250;2023-08-31T01:55:26;8.50;;;3.20;;
16665;SDS011;8446;50.998;6.250;2023-08-31T01:57:52;3.70;;;3.20;;
16665;SDS011;8446;50.998;6.250;2023-08-31T02:00:21;5.03;;;3.40;;
16665;SDS011;8446;50.998;6.250;2023-08-31T02:02:47;2.97;;;2.53;;
16665;SDS011;8446;50.998;6.250;2023-08-31T02:05:14;3.70;;;3.33;;
16665;SDS011;8446;50.998;6.250;2023-08-31T02:07:41;4.73;;;3.60;;
16665;SDS011;8446;50.998;6.250;2023-08-31T02:10:08;4.17;;;3.37;;
16665;SDS011;8446;50.998;6.250;2023-08-31T02:12:35;3.87;;;2.70;;
16665;SDS011;8446;50.998;6.250;2023-08-31T02:15:03;4.90;;;3.13;;
16665;SDS011;8446;50.998;6.250;2023-08-31T02:17:32;8.67;;;3.60;;
16665;SDS011;8446;50.998;6.250;2023-08-31T02:20:00;6.10;;;2.77;;
16665;SDS011;8446;50.998;6.250;2023-08-31T02:22:29;6.37;;;3.43;;
16665;SDS011;8446;50.998;6.250;2023-08-31T02:24:56;3.47;;;3.17;;
16665;SDS011;8446;50.998;6.250;2023-08-31T02:27:23;4.67;;;2.80;;
16665;SDS011;8446;50.998;6.250;2023-08-31T02:29:50;6.53;;;2.97;;
16665;SDS011;8446;50.998;6.250;2023-08-31T02:32:17;9.80;;;2.97;;
16665;SDS011;8446;50.998;6.250;2023-08-31T02:34:45;3.37;;;2.87;;
16665;SDS011;8446;50.998;6.250;2023-08-31T02:37:12;6.33;;;3.10;;
16665;SDS011;8446;50.998;6.250;2023-08-31T02:39:38;3.30;;;2.87;;
16665;SDS011;8446;50.998;6.250;2023-08-31T02:42:06;2.80;;;2.60;;
16665;SDS011;8446;50.998;6.250;2023-08-31T02:44:33;5.20;;;3.30;;
16665;SDS011;8446;50.998;6.250;2023-08-31T02:46:59;3.40;;;2.77;;
16665;SDS011;8446;50.998;6.250;2023-08-31T02:49:27;4.73;;;3.50;;
16665;SDS011;8446;50.998;6.250;2023-08-31T02:51:55;11.23;;;3.30;;
16665;SDS011;8446;50.998;6.250;2023-08-31T02:54:21;3.10;;;2.80;;
16665;SDS011;8446;50.998;6.250;2023-08-31T02:56:48;3.60;;;2.80;;
16665;SDS011;8446;50.998;6.250;2023-08-31T02:59:15;5.83;;;2.70;;
16665;SDS011;8446;50.998;6.250;2023-08-31T03:01:42;3.70;;;2.80;;
16665;SDS011;8446;50.998;6.250;2023-08-31T03:04:11;5.47;;;3.10;;
16665;SDS011;8446;50.998;6.250;2023-08-31T03:06:38;7.40;;;3.03;;
16665;SDS011;8446;50.998;6.250;2023-08-31T03:09:06;2.93;;;2.40;;
16665;SDS011;8446;50.998;6.250;2023-08-31T03:11:33;3.67;;;3.37;;
16665;SDS011;8446;50.998;6.250;2023-08-31T03:14:00;5.73;;;3.67;;
16665;SDS011;8446;50.998;6.250;2023-08-31T03:16:27;4.83;;;3.73;;
16665;SDS011;8446;50.998;6.250;2023-08-31T03:18:54;7.20;;;4.03;;
16665;SDS011;8446;50.998;6.250;2023-08-31T03:21:21;4.83;;;3.60;;
16665;SDS011;8446;50.998;6.250;2023-08-31T03:23:47;4.60;;;3.50;;
16665;SDS011;8446;50.998;6.250;2023-08-31T03:26:15;5.37;;;3.57;;
16665;SDS011;8446;50.998;6.250;2023-08-31T03:28:42;4.33;;;3.80;;
16665;SDS011;8446;50.998;6.250;2023-08-31T03:31:09;9.40;;;3.20;;
16665;SDS011;8446;50.998;6.250;2023-08-31T03:33:36;4.60;;;4.07;;
16665;SDS011;8446;50.998;6.250;2023-08-31T03:36:03;4.70;;;3.70;;
16665;SDS011;8446;50.998;6.250;2023-08-31T03:38:30;13.73;;;3.87;;
16665;SDS011;8446;50.998;6.250;2023-08-31T03:40:57;5.73;;;4.30;;
16665;SDS011;8446;50.998;6.250;2023-08-31T03:43:25;6.30;;;3.53;;
16665;SDS011;8446;50.998;6.250;2023-08-31T03:45:55;6.20;;;4.00;;
16665;SDS011;8446;50.998;6.250;2023-08-31T03:48:22;5.83;;;4.13;;
16665;SDS011;8446;50.998;6.250;2023-08-31T03:50:50;5.90;;;4.37;;
16665;SDS011;8446;50.998;6.250;2023-08-31T03:53:17;5.97;;;4.23;;
16665;SDS011;8446;50.998;6.250;2023-08-31T03:55:44;7.33;;;4.70;;
16665;SDS011;8446;50.998;6.250;2023-08-31T03:58:10;10.93;;;4.90;;
16665;SDS011;8446;50.998;6.250;2023-08-31T04:00:39;8.23;;;4.93;;
16665;SDS011;8446;50.998;6.250;2023-08-31T04:03:06;9.70;;;4.80;;
16665;SDS011;8446;50.998;6.250;2023-08-31T04:05:33;7.93;;;4.90;;
16665;SDS011;8446;50.998;6.250;2023-08-31T04:08:00;8.83;;;4.80;;
16665;SDS011;8446;50.998;6.250;2023-08-31T04:10:28;6.70;;;4.80;;
16665;SDS011;8446;50.998;6.250;2023-08-31T04:12:56;8.83;;;5.93;;
16665;SDS011;8446;50.998;6.250;2023-08-31T04:15:23;8.97;;;4.93;;
16665;SDS011;8446;50.998;6.250;2023-08-31T04:17:51;8.60;;;4.43;;
16665;SDS011;8446;50.998;6.250;2023-08-31T04:20:18;7.87;;;4.90;;
16665;SDS011;8446;50.998;6.250;2023-08-31T04:22:45;8.43;;;4.40;;
16665;SDS011;8446;50.998;6.250;2023-08-31T04:25:12;8.87;;;4.77;;
16665;SDS011;8446;50.998;6.250;2023-08-31T04:27:39;11.13;;;4.40;;
16665;SDS011;8446;50.998;6.250;2023-08-31T04:30:06;15.20;;;5.77;;
16665;SDS011;8446;50.998;6.250;2023-08-31T04:32:33;7.70;;;4.40;;
16665;SDS011;8446;50.998;6.250;2023-08-31T04:35:01;6.10;;;4.50;;
16665;SDS011;8446;50.998;6.250;2023-08-31T04:37:30;6.10;;;4.30;;
16665;SDS011;8446;50.998;6.250;2023-08-31T04:39:58;6.70;;;4.53;;
16665;SDS011;8446;50.998;6.250;2023-08-31T04:42:25;6.90;;;5.27;;
16665;SDS011;8446;50.998;6.250;2023-08-31T04:44:51;4.77;;;3.73;;
16665;SDS011;8446;50.998;6.250;2023-08-31T04:47:18;9.20;;;4.30;;
16665;SDS011;8446;50.998;6.250;2023-08-31T04:49:45;9.43;;;4.10;;
16665;SDS011;8446;50.998;6.250;2023-08-31T04:52:13;6.70;;;4.77;;
16665;SDS011;8446;50.998;6.250;2023-08-31T04:54:40;10.23;;;4.33;;
16665;SDS011;8446;50.998;6.250;2023-08-31T04:57:07;16.17;;;4.37;;
16665;SDS011;8446;50.998;6.250;2023-08-31T04:59:35;5.40;;;4.17;;
16665;SDS011;8446;50.998;6.250;2023-08-31T05:02:02;10.90;;;5.07;;
16665;SDS011;8446;50.998;6.250;2023-08-31T05:04:29;7.07;;;3.93;;
16665;SDS011;8446;50.998;6.250;2023-08-31T05:06:55;9.40;;;4.13;;
16665;SDS011;8446;50.998;6.250;2023-08-31T05:09:24;7.70;;;4.20;;
16665;SDS011;8446;50.998;6.250;2023-08-31T05:11:51;8.27;;;4.30;;
16665;SDS011;8446;50.998;6.250;2023-08-31T05:14:18;8.67;;;4.20;;
16665;SDS011;8446;50.998;6.250;2023-08-31T05:16:45;7.03;;;4.17;;
16665;SDS011;8446;50.998;6.250;2023-08-31T05:19:12;6.50;;;4.40;;
16665;SDS011;8446;50.998;6.250;2023-08-31T05:21:39;11.27;;;3.93;;
16665;SDS011;8446;50.998;6.250;2023-08-31T05:24:05;4.27;;;3.50;;
16665;SDS011;8446;50.998;6.250;2023-08-31T05:26:34;8.03;;;4.00;;
16665;SDS011;8446;50.998;6.250;2023-08-31T05:29:00;9.30;;;4.03;;
16665;SDS011;8446;50.998;6.250;2023-08-31T05:31:30;13.73;;;4.07;;
16665;SDS011;8446;50.998;6.250;2023-08-31T05:33:56;5.73;;;3.50;;
16665;SDS011;8446;50.998;6.250;2023-08-31T05:36:23;6.80;;;3.93;;
16665;SDS011;8446;50.998;6.250;2023-08-31T05:38:50;10.10;;;3.77;;
16665;SDS011;8446;50.998;6.250;2023-08-31T05:41:18;5.17;;;3.30;;
16665;SDS011;8446;50.998;6.250;2023-08-31T05:43:46;6.90;;;3.80;;
16665;SDS011;8446;50.998;6.250;2023-08-31T05:46:13;5.90;;;3.80;;
16665;SDS011;8446;50.998;6.250;2023-08-31T05:48:39;6.90;;;4.10;;
16665;SDS011;8446;50.998;6.250;2023-08-31T05:51:06;6.67;;;4.20;;
16665;SDS011;8446;50.998;6.250;2023-08-31T05:53:34;13.10;;;4.47;;
16665;SDS011;8446;50.998;6.250;2023-08-31T05:56:00;10.93;;;3.57;;
16665;SDS011;8446;50.998;6.250;2023-08-31T05:58:30;18.03;;;3.53;;
16665;SDS011;8446;50.998;6.250;2023-08-31T06:00:58;9.10;;;3.63;;
16665;SDS011;8446;50.998;6.250;2023-08-31T06:03:25;4.07;;;3.23;;
16665;SDS011;8446;50.998;6.250;2023-08-31T06:05:52;9.30;;;3.77;;
16665;SDS011;8446;50.998;6.250;2023-08-31T06:08:19;12.73;;;3.67;;
16665;SDS011;8446;50.998;6.250;2023-08-31T06:10:46;6.10;;;3.90;;
16665;SDS011;8446;50.998;6.250;2023-08-31T06:13:13;6.33;;;3.23;;
16665;SDS011;8446;50.998;6.250;2023-08-31T06:15:39;6.50;;;3.30;;
16665;SDS011;8446;50.998;6.250;2023-08-31T06:18:08;7.80;;;3.67;;
16665;SDS011;8446;50.998;6.250;2023-08-31T06:20:34;6.50;;;3.30;;
16665;SDS011;8446;50.998;6.250;2023-08-31T06:23:01;8.93;;;3.90;;
16665;SDS011;8446;50.998;6.250;2023-08-31T06:25:28;7.60;;;3.73;;
16665;SDS011;8446;50.998;6.250;2023-08-31T06:27:55;9.83;;;3.37;;
16665;SDS011;8446;50.998;6.250;2023-08-31T06:30:22;7.70;;;3.40;;
16665;SDS011;8446;50.998;6.250;2023-08-31T06:32:49;6.70;;;3.40;;
16665;SDS011;8446;50.998;6.250;2023-08-31T06:35:18;6.03;;;2.73;;
16665;SDS011;8446;50.998;6.250;2023-08-31T06:37:45;5.97;;;2.80;;
16665;SDS011;8446;50.998;6.250;2023-08-31T06:40:12;5.83;;;3.20;;
16665;SDS011;8446;50.998;6.250;2023-08-31T06:42:39;4.90;;;2.27;;
16665;SDS011;8446;50.998;6.250;2023-08-31T06:45:06;9.30;;;3.30;;
16665;SDS011;8446;50.998;6.250;2023-08-31T06:47:34;3.23;;;2.60;;
16665;SDS011;8446;50.998;6.250;2023-08-31T06:50:01;8.27;;;2.83;;
16665;SDS011;8446;50.998;6.250;2023-08-31T06:52:29;2.20;;;2.00;;
16665;SDS011;8446;50.998;6.250;2023-08-31T06:54:57;13.90;;;2.80;;
16665;SDS011;8446;50.998;6.250;2023-08-31T06:57:24;4.43;;;2.90;;
16665;SDS011;8446;50.998;6.250;2023-08-31T06:59:51;5.10;;;2.90;;
16665;SDS011;8446;50.998;6.250;2023-08-31T07:02:18;4.47;;;2.50;;
16665;SDS011;8446;50.998;6.250;2023-08-31T07:04:47;2.80;;;2.07;;
16665;SDS011;8446;50.998;6.250;2023-08-31T07:07:14;3.83;;;2.20;;
16665;SDS011;8446;50.998;6.250;2023-08-31T07:09:43;3.33;;;1.90;;
16665;SDS011;8446;50.998;6.250;2023-08-31T07:12:10;9.97;;;2.40;;
16665;SDS011;8446;50.998;6.250;2023-08-31T07:14:37;6.03;;;1.97;;
16665;SDS011;8446;50.998;6.250;2023-08-31T07:17:04;1.73;;;1.60;;
16665;SDS011;8446;50.998;6.250;2023-08-31T07:19:31;4.57;;;2.27;;
16665;SDS011;8446;50.998;6.250;2023-08-31T07:22:01;6.93;;;2.23;;
16665;SDS011;8446;50.998;6.250;2023-08-31T07:24:29;2.63;;;2.00;;
16665;SDS011;8446;50.998;6.250;2023-08-31T07:26:57;10.60;;;2.33;;
16665;SDS011;8446;50.998;6.250;2023-08-31T07:29:24;6.43;;;2.50;;
16665;SDS011;8446;50.998;6.250;2023-08-31T07:31:51;6.10;;;2.00;;
16665;SDS011;8446;50.998;6.250;2023-08-31T07:34:17;1.87;;;1.53;;
16665;SDS011;8446;50.998;6.250;2023-08-31T07:36:44;3.90;;;1.80;;
16665;SDS011;8446;50.998;6.250;2023-08-31T07:39:12;10.53;;;2.10;;
16665;SDS011;8446;50.998;6.250;2023-08-31T07:41:38;4.37;;;2.60;;
16665;SDS011;8446;50.998;6.250;2023-08-31T07:44:06;6.27;;;2.03;;
16665;SDS011;8446;50.998;6.250;2023-08-31T07:46:33;14.60;;;2.53;;
16665;SDS011;8446;50.998;6.250;2023-08-31T07:49:00;12.77;;;2.47;;
16665;SDS011;8446;50.998;6.250;2023-08-31T07:51:28;7.60;;;1.80;;
16665;SDS011;8446;50.998;6.250;2023-08-31T07:53:55;4.40;;;2.00;;
16665;SDS011;8446;50.998;6.250;2023-08-31T07:56:21;5.70;;;2.30;;
16665;SDS011;8446;50.998;6.250;2023-08-31T07:58:48;4.27;;;2.30;;
16665;SDS011;8446;50.998;6.250;2023-08-31T08:01:17;8.83;;;2.20;;
16665;SDS011;8446;50.998;6.250;2023-08-31T08:03:44;5.23;;;2.03;;
16665;SDS011;8446;50.998;6.250;2023-08-31T08:06:10;3.73;;;2.30;;
16665;SDS011;8446;50.998;6.250;2023-08-31T08:08:37;2.30;;;2.10;;
16665;SDS011;8446;50.998;6.250;2023-08-31T08:11:04;6.30;;;2.47;;
16665;SDS011;8446;50.998;6.250;2023-08-31T08:13:33;6.77;;;2.23;;
16665;SDS011;8446;50.998;6.250;2023-08-31T08:15:59;7.63;;;2.43;;
16665;SDS011;8446;50.998;6.250;2023-08-31T08:18:28;5.80;;;2.40;;
16665;SDS011;8446;50.998;6.250;2023-08-31T08:20:56;4.20;;;2.13;;
16665;SDS011;8446;50.998;6.250;2023-08-31T08:23:23;11.00;;;2.10;;
16665;SDS011;8446;50.998;6.250;2023-08-31T08:25:49;2.90;;;1.80;;
16665;SDS011;8446;50.998;6.250;2023-08-31T08:28:16;25.17;;;3.53;;
16665;SDS011;8446;50.998;6.250;2023-08-31T08:30:43;2.40;;;2.17;;
16665;SDS011;8446;50.998;6.250;2023-08-31T08:33:10;3.50;;;2.50;;
16665;SDS011;8446;50.998;6.250;2023-08-31T08:35:38;5.03;;;3.20;;
16665;SDS011;8446;50.998;6.250;2023-08-31T08:38:05;5.50;;;2.60;;
16665;SDS011;8446;50.998;6.250;2023-08-31T08:40:31;6.37;;;2.70;;
16665;SDS011;8446;50.998;6.250;2023-08-31T08:42:59;6.20;;;2.60;;
16665;SDS011;8446;50.998;6.250;2023-08-31T08:45:29;6.53;;;2.40;;
16665;SDS011;8446;50.998;6.250;2023-08-31T08:48:02;5.23;;;2.37;;
16665;SDS011;8446;50.998;6.250;2023-08-31T08:50:31;8.60;;;2.70;;
16665;SDS011;8446;50.998;6.250;2023-08-31T08:53:00;5.37;;;2.53;;
16665;SDS011;8446;50.998;6.250;2023-08-31T08:55:27;3.07;;;1.80;;
16665;SDS011;8446;50.998;6.250;2023-08-31T08:57:54;4.23;;;2.20;;
16665;SDS011;8446;50.998;6.250;2023-08-31T09:00:21;4.63;;;2.10;;
16665;SDS011;8446;50.998;6.250;2023-08-31T09:02:48;3.50;;;2.37;;
16665;SDS011;8446;50.998;6.250;2023-08-31T09:05:15;4.83;;;2.13;;
16665;SDS011;8446;50.998;6.250;2023-08-31T09:10:38;6.23;;;2.70;;
16665;SDS011;8446;50.998;6.250;2023-08-31T09:13:07;9.90;;;3.17;;
16665;SDS011;8446;50.998;6.250;2023-08-31T09:15:41;5.37;;;2.30;;
16665;SDS011;8446;50.998;6.250;2023-08-31T09:18:16;6.10;;;2.73;;
16665;SDS011;8446;50.998;6.250;2023-08-31T09:20:48;8.13;;;3.10;;
16665;SDS011;8446;50.998;6.250;2023-08-31T09:23:17;2.20;;;2.00;;
16665;SDS011;8446;50.998;6.250;2023-08-31T09:25:44;9.20;;;2.67;;
16665;SDS011;8446;50.998;6.250;2023-08-31T09:28:13;5.57;;;2.63;;
16665;SDS011;8446;50.998;6.250;2023-08-31T09:30:41;4.93;;;2.20;;
16665;SDS011;8446;50.998;6.250;2023-08-31T09:33:10;2.93;;;2.13;;
16665;SDS011;8446;50.998;6.250;2023-08-31T09:35:45;5.43;;;2.73;;
16665;SDS011;8446;50.998;6.250;2023-08-31T09:38:14;5.63;;;2.33;;
16665;SDS011;8446;50.998;6.250;2023-08-31T09:40:43;5.03;;;2.23;;
16665;SDS011;8446;50.998;6.250;2023-08-31T09:43:09;7.43;;;2.50;;
16665;SDS011;8446;50.998;6.250;2023-08-31T09:45:36;7.70;;;2.37;;
16665;SDS011;8446;50.998;6.250;2023-08-31T09:48:04;7.43;;;2.70;;
16665;SDS011;8446;50.998;6.250;2023-08-31T09:50:32;9.50;;;3.27;;
16665;SDS011;8446;50.998;6.250;2023-08-31T09:53:00;6.37;;;3.00;;
16665;SDS011;8446;50.998;6.250;2023-08-31T09:55:30;4.97;;;2.90;;
16665;SDS011;8446;50.998;6.250;2023-08-31T09:57:58;8.97;;;3.50;;
16665;SDS011;8446;50.998;6.250;2023-08-31T10:00:27;2.80;;;1.93;;
16665;SDS011;8446;50.998;6.250;2023-08-31T10:02:56;13.40;;;2.63;;
16665;SDS011;8446;50.998;6.250;2023-08-31T10:05:26;11.83;;;2.50;;
16665;SDS011;8446;50.998;6.250;2023-08-31T10:07:53;9.00;;;2.83;;
16665;SDS011;8446;50.998;6.250;2023-08-31T10:10:20;3.13;;;2.13;;
16665;SDS011;8446;50.998;6.250;2023-08-31T10:12:49;7.77;;;2.30;;
16665;SDS011;8446;50.998;6.250;2023-08-31T10:15:16;5.07;;;1.73;;
16665;SDS011;8446;50.998;6.250;2023-08-31T10:17:44;3.53;;;2.27;;
16665;SDS011;8446;50.998;6.250;2023-08-31T10:20:11;3.70;;;1.80;;
16665;SDS011;8446;50.998;6.250;2023-08-31T10:22:40;4.40;;;2.60;;
16665;SDS011;8446;50.998;6.250;2023-08-31T10:25:08;3.67;;;2.13;;
16665;SDS011;8446;50.998;6.250;2023-08-31T10:27:37;3.83;;;2.87;;
16665;SDS011;8446;50.998;6.250;2023-08-31T10:30:25;8.73;;;2.73;;
16665;SDS011;8446;50.998;6.250;2023-08-31T10:35:49;5.03;;;2.33;;
16665;SDS011;8446;50.998;6.250;2023-08-31T10:38:19;13.33;;;2.70;;
16665;SDS011;8446;50.998;6.250;2023-08-31T10:41:03;7.87;;;2.47;;
16665;SDS011;8446;50.998;6.250;2023-08-31T10:43:48;4.03;;;2.00;;
16665;SDS011;8446;50.998;6.250;2023-08-31T10:46:28;3.80;;;1.70;;
16665;SDS011;8446;50.998;6.250;2023-08-31T10:48:56;7.17;;;2.30;;
16665;SDS011;8446;50.998;6.250;2023-08-31T10:51:25;6.43;;;2.20;;
16665;SDS011;8446;50.998;6.250;2023-08-31T10:54:03;8.87;;;2.07;;
16665;SDS011;8446;50.998;6.250;2023-08-31T10:56:31;7.67;;;2.50;;
16665;SDS011;8446;50.998;6.250;2023-08-31T10:58:58;6.20;;;2.57;;
16665;SDS011;8446;50.998;6.250;2023-08-31T11:04:19;4.20;;;1.70;;
16665;SDS011;8446;50.998;6.250;2023-08-31T11:06:46;4.13;;;1.90;;
16665;SDS011;8446;50.998;6.250;2023-08-31T11:09:17;5.37;;;2.87;;
16665;SDS011;8446;50.998;6.250;2023-08-31T11:11:45;4.83;;;1.73;;
16665;SDS011;8446;50.998;6.250;2023-08-31T11:14:12;7.53;;;2.57;;
16665;SDS011;8446;50.998;6.250;2023-08-31T11:16:38;2.77;;;1.77;;
16665;SDS011;8446;50.998;6.250;2023-08-31T11:19:07;6.33;;;2.20;;
16665;SDS011;8446;50.998;6.250;2023-08-31T11:21:35;3.77;;;2.00;;
16665;SDS011;8446;50.998;6.250;2023-08-31T11:24:03;5.53;;;2.20;;
16665;SDS011;8446;50.998;6.250;2023-08-31T11:26:31;12.67;;;2.30;;
16665;SDS011;8446;50.998;6.250;2023-08-31T11:28:58;2.50;;;1.93;;
16665;SDS011;8446;50.998;6.250;2023-08-31T11:31:25;9.60;;;3.00;;
16665;SDS011;8446;50.998;6.250;2023-08-31T11:33:53;4.00;;;2.13;;
16665;SDS011;8446;50.998;6.250;2023-08-31T11:36:22;4.23;;;2.40;;
16665;SDS011;8446;50.998;6.250;2023-08-31T11:38:50;7.27;;;2.40;;
16665;SDS011;8446;50.998;6.250;2023-08-31T11:41:17;6.33;;;2.17;;
16665;SDS011;8446;50.998;6.250;2023-08-31T11:43:44;8.20;;;2.57;;
16665;SDS011;8446;50.998;6.250;2023-08-31T11:46:11;8.20;;;2.20;;
16665;SDS011;8446;50.998;6.250;2023-08-31T11:48:38;3.90;;;1.73;;
16665;SDS011;8446;50.998;6.250;2023-08-31T11:51:05;5.40;;;2.63;;
16665;SDS011;8446;50.998;6.250;2023-08-31T11:53:34;9.97;;;2.73;;
16665;SDS011;8446;50.998;6.250;2023-08-31T11:56:01;3.60;;;2.50;;
16665;SDS011;8446;50.998;6.250;2023-08-31T11:58:29;5.60;;;2.10;;
16665;SDS011;8446;50.998;6.250;2023-08-31T12:00:58;5.27;;;3.00;;
16665;SDS011;8446;50.998;6.250;2023-08-31T12:03:26;8.80;;;2.63;;
16665;SDS011;8446;50.998;6.250;2023-08-31T12:05:54;8.50;;;2.97;;
16665;SDS011;8446;50.998;6.250;2023-08-31T12:08:24;4.00;;;2.17;;
16665;SDS011;8446;50.998;6.250;2023-08-31T12:10:53;13.70;;;2.90;;
16665;SDS011;8446;50.998;6.250;2023-08-31T12:13:21;8.03;;;2.40;;
16665;SDS011;8446;50.998;6.250;2023-08-31T12:15:53;5.90;;;2.50;;
16665;SDS011;8446;50.998;6.250;2023-08-31T12:18:21;6.60;;;2.43;;
16665;SDS011;8446;50.998;6.250;2023-08-31T12:20:49;7.63;;;2.47;;
16665;SDS011;8446;50.998;6.250;2023-08-31T12:23:17;3.13;;;1.97;;
16665;SDS011;8446;50.998;6.250;2023-08-31T12:25:47;4.80;;;1.87;;
16665;SDS011;8446;50.998;6.250;2023-08-31T12:28:15;3.20;;;1.60;;
16665;SDS011;8446;50.998;6.250;2023-08-31T12:30:45;5.10;;;1.80;;
16665;SDS011;8446;50.998;6.250;2023-08-31T12:33:13;3.70;;;1.80;;
16665;SDS011;8446;50.998;6.250;2023-08-31T12:35:40;5.23;;;1.70;;
16665;SDS011;8446;50.998;6.250;2023-08-31T12:38:07;7.50;;;2.90;;
16665;SDS011;8446;50.998;6.250;2023-08-31T12:40:34;4.00;;;1.90;;
16665;SDS011;8446;50.998;6.250;2023-08-31T12:43:00;4.03;;;2.10;;
16665;SDS011;8446;50.998;6.250;2023-08-31T12:45:29;3.63;;;1.50;;
16665;SDS011;8446;50.998;6.250;2023-08-31T12:47:56;4.47;;;1.70;;
16665;SDS011;8446;50.998;6.250;2023-08-31T12:50:23;6.03;;;1.93;;
16665;SDS011;8446;50.998;6.250;2023-08-31T12:52:50;8.50;;;2.20;;
16665;SDS011;8446;50.998;6.250;2023-08-31T12:55:17;4.53;;;1.80;;
16665;SDS011;8446;50.998;6.250;2023-08-31T12:57:44;6.73;;;2.40;;
16665;SDS011;8446;50.998;6.250;2023-08-31T13:00:11;5.53;;;2.10;;
16665;SDS011;8446;50.998;6.250;2023-08-31T13:02:42;3.63;;;1.83;;
16665;SDS011;8446;50.998;6.250;2023-08-31T13:05:10;9.20;;;2.23;;
16665;SDS011;8446;50.998;6.250;2023-08-31T13:07:37;4.60;;;2.10;;
16665;SDS011;8446;50.998;6.250;2023-08-31T13:10:04;4.67;;;2.00;;
16665;SDS011;8446;50.998;6.250;2023-08-31T13:12:32;6.03;;;2.10;;
16665;SDS011;8446;50.998;6.250;2023-08-31T13:15:00;3.73;;;1.87;;
16665;SDS011;8446;50.998;6.250;2023-08-31T13:17:27;4.03;;;1.60;;
16665;SDS011;8446;50.998;6.250;2023-08-31T13:19:56;2.40;;;1.50;;
16665;SDS011;8446;50.998;6.250;2023-08-31T13:22:23;6.50;;;1.80;;
16665;SDS011;8446;50.998;6.250;2023-08-31T13:24:50;3.37;;;2.53;;
16665;SDS011;8446;50.998;6.250;2023-08-31T13:27:17;9.20;;;2.37;;
16665;SDS011;8446;50.998;6.250;2023-08-31T13:29:44;1.87;;;1.67;;
16665;SDS011;8446;50.998;6.250;2023-08-31T13:32:11;6.80;;;2.50;;
16665;SDS011;8446;50.998;6.250;2023-08-31T13:34:38;4.07;;;2.43;;
16665;SDS011;8446;50.998;6.250;2023-08-31T13:37:07;4.10;;;1.67;;
16665;SDS011;8446;50.998;6.250;2023-08-31T13:39:34;3.53;;;1.70;;
16665;SDS011;8446;50.998;6.250;2023-08-31T13:42:01;5.20;;;1.90;;
16665;SDS011;8446;50.998;6.250;2023-08-31T13:44:29;6.10;;;2.10;;
16665;SDS011;8446;50.998;6.250;2023-08-31T13:46:56;2.63;;;1.93;;
16665;SDS011;8446;50.998;6.250;2023-08-31T13:49:22;5.53;;;2.10;;
16665;SDS011;8446;50.998;6.250;2023-08-31T13:51:49;6.77;;;2.93;;
16665;SDS011;8446;50.998;6.250;2023-08-31T13:54:17;14.57;;;2.50;;
16665;SDS011;8446;50.998;6.250;2023-08-31T13:56:44;14.70;;;2.20;;
16665;SDS011;8446;50.998;6.250;2023-08-31T13:59:11;6.27;;;2.67;;
16665;SDS011;8446;50.998;6.250;2023-08-31T14:01:38;6.40;;;2.37;;
16665;SDS011;8446;50.998;6.250;2023-08-31T14:04:05;9.43;;;2.80;;
16665;SDS011;8446;50.998;6.250;2023-08-31T14:06:32;6.27;;;2.40;;
16665;SDS011;8446;50.998;6.250;2023-08-31T14:08:59;5.20;;;2.23;;
16665;SDS011;8446;50.998;6.250;2023-08-31T14:11:27;2.73;;;1.93;;
16665;SDS011;8446;50.998;6.250;2023-08-31T14:14:00;7.50;;;2.13;;
16665;SDS011;8446;50.998;6.250;2023-08-31T14:16:30;6.00;;;2.13;;
16665;SDS011;8446;50.998;6.250;2023-08-31T14:18:57;4.43;;;1.70;;
16665;SDS011;8446;50.998;6.250;2023-08-31T14:21:24;5.10;;;2.63;;
16665;SDS011;8446;50.998;6.250;2023-08-31T14:23:50;7.87;;;2.07;;
16665;SDS011;8446;50.998;6.250;2023-08-31T14:26:20;3.13;;;2.00;;
16665;SDS011;8446;50.998;6.250;2023-08-31T14:28:49;5.97;;;1.90;;
16665;SDS011;8446;50.998;6.250;2023-08-31T14:31:16;5.13;;;2.50;;
16665;SDS011;8446;50.998;6.250;2023-08-31T14:33:43;5.53;;;1.80;;
16665;SDS011;8446;50.998;6.250;2023-08-31T14:36:11;4.73;;;2.90;;
16665;SDS011;8446;50.998;6.250;2023-08-31T14:38:38;3.07;;;2.00;;
16665;SDS011;8446;50.998;6.250;2023-08-31T14:41:05;7.80;;;2.00;;
16665;SDS011;8446;50.998;6.250;2023-08-31T14:43:32;2.53;;;1.50;;
16665;SDS011;8446;50.998;6.250;2023-08-31T14:46:00;3.97;;;1.63;;
16665;SDS011;8446;50.998;6.250;2023-08-31T14:48:27;8.33;;;1.90;;
16665;SDS011;8446;50.998;6.250;2023-08-31T14:50:54;9.83;;;1.97;;
16665;SDS011;8446;50.998;6.250;2023-08-31T14:53:23;4.37;;;2.00;;
16665;SDS011;8446;50.998;6.250;2023-08-31T14:55:50;5.00;;;2.57;;
16665;SDS011;8446;50.998;6.250;2023-08-31T14:58:17;3.53;;;1.60;;
16665;SDS011;8446;50.998;6.250;2023-08-31T15:00:44;4.00;;;2.20;;
16665;SDS011;8446;50.998;6.250;2023-08-31T15:03:12;5.57;;;1.77;;
16665;SDS011;8446;50.998;6.250;2023-08-31T15:05:39;2.67;;;1.40;;
16665;SDS011;8446;50.998;6.250;2023-08-31T15:08:07;7.37;;;2.27;;
16665;SDS011;8446;50.998;6.250;2023-08-31T15:10:33;8.23;;;2.00;;
16665;SDS011;8446;50.998;6.250;2023-08-31T15:13:00;4.10;;;2.07;;